createdAt,value
2023-01-04T00:00:33.031Z,24.98
2023-01-04T00:01:32.518Z,24.98
2023-01-04T00:02:32.313Z,25.00
2023-01-04T00:03:32.459Z,24.97
2023-01-04T00:04:32.185Z,24.97
2023-01-04T00:05:32.144Z,24.94
2023-01-04T00:06:32.070Z,24.94
2023-01-04T00:07:32.054Z,24.94
2023-01-04T00:08:32.002Z,24.95
2023-01-04T00:09:31.924Z,24.99
2023-01-04T00:10:31.888Z,24.89
2023-01-04T00:11:31.838Z,24.97
2023-01-04T00:12:31.793Z,24.98
2023-01-04T00:13:31.747Z,24.95
2023-01-04T00:14:31.694Z,24.92
2023-01-04T00:15:31.693Z,24.95
2023-01-04T00:16:31.666Z,24.89
2023-01-04T00:17:31.557Z,24.91
2023-01-04T00:18:31.509Z,24.92
2023-01-04T00:19:31.458Z,24.95
2023-01-04T00:20:31.405Z,24.91
2023-01-04T00:21:31.342Z,24.89
2023-01-04T00:22:31.289Z,24.92
2023-01-04T00:23:31.259Z,24.92
2023-01-04T00:24:31.197Z,24.89
2023-01-04T00:25:31.145Z,24.85
2023-01-04T00:26:31.099Z,24.88
2023-01-04T00:27:31.063Z,24.89
2023-01-04T00:28:31.018Z,24.78
2023-01-04T00:29:30.969Z,24.83
2023-01-04T00:30:30.982Z,24.89
2023-01-04T00:31:31.027Z,24.89
2023-01-04T00:32:31.000Z,24.88
2023-01-04T00:33:31.007Z,24.84
2023-01-04T00:34:31.022Z,24.88
2023-01-04T00:35:45.263Z,24.91
2023-01-04T00:36:31.978Z,24.88
2023-01-04T00:37:30.934Z,24.85
2023-01-04T00:38:30.876Z,24.77
2023-01-04T00:39:30.806Z,24.81
2023-01-04T00:40:30.776Z,24.87
2023-01-04T00:41:57.584Z,24.86
2023-01-04T00:42:31.660Z,24.82
2023-01-04T00:43:30.612Z,24.82
2023-01-04T00:44:30.714Z,24.81
2023-01-04T00:45:30.498Z,24.84
2023-01-04T00:46:30.466Z,24.78
2023-01-04T00:47:30.394Z,24.84
2023-01-04T00:48:30.361Z,24.82
2023-01-04T00:49:30.288Z,24.82
2023-01-04T00:50:30.243Z,24.82
2023-01-04T00:51:30.178Z,24.80
2023-01-04T00:52:30.128Z,24.81
2023-01-04T00:53:30.082Z,24.74
2023-01-04T00:54:30.054Z,24.76
2023-01-04T00:55:29.970Z,24.85
2023-01-04T00:56:29.961Z,24.67
2023-01-04T00:57:29.876Z,24.77
2023-01-04T00:58:29.821Z,24.77
2023-01-04T00:59:29.787Z,24.77
2023-01-04T01:00:29.780Z,24.75
2023-01-04T01:01:29.773Z,24.73
2023-01-04T01:02:29.894Z,24.77
2023-01-04T01:03:36.561Z,24.77
2023-01-04T01:04:30.535Z,24.73
2023-01-04T01:05:29.473Z,24.76
2023-01-04T01:06:29.459Z,24.71
2023-01-04T01:07:29.361Z,24.77
2023-01-04T01:08:29.326Z,24.73
2023-01-04T01:09:29.268Z,24.75
2023-01-04T01:10:29.220Z,24.74
2023-01-04T01:11:29.168Z,24.76
2023-01-04T01:12:29.124Z,24.70
2023-01-04T01:13:29.076Z,24.77
2023-01-04T01:14:29.024Z,24.70
2023-01-04T01:15:29.024Z,24.75
2023-01-04T01:16:58.959Z,24.68
2023-01-04T01:17:29.879Z,24.74
2023-01-04T01:18:28.821Z,24.73
2023-01-04T01:19:28.862Z,24.68
2023-01-04T01:20:28.727Z,24.70
2023-01-04T01:21:28.686Z,24.70
2023-01-04T01:22:28.678Z,24.70
2023-01-04T01:23:28.593Z,24.66
2023-01-04T01:24:28.560Z,24.68
2023-01-04T01:25:28.500Z,24.71
2023-01-04T01:26:28.466Z,24.61
2023-01-04T01:27:28.403Z,24.67
2023-01-04T01:28:28.363Z,24.73
2023-01-04T01:29:28.534Z,24.63
2023-01-04T01:30:28.277Z,24.67
2023-01-04T01:31:28.264Z,24.63
2023-01-04T01:32:28.192Z,24.59
2023-01-04T01:33:28.144Z,24.64
2023-01-04T01:34:28.092Z,24.67
2023-01-04T01:35:28.086Z,24.71
2023-01-04T01:36:28.012Z,24.63
2023-01-04T01:37:27.975Z,24.59
2023-01-04T01:38:27.929Z,24.67
2023-01-04T01:39:27.878Z,24.66
2023-01-04T01:40:27.818Z,24.67
2023-01-04T01:41:27.780Z,24.67
2023-01-04T01:42:27.734Z,24.64
2023-01-04T01:43:27.666Z,24.61
2023-01-04T01:44:27.698Z,24.66
2023-01-04T01:45:27.580Z,24.64
2023-01-04T01:46:27.588Z,24.68
2023-01-04T01:47:27.494Z,24.64
2023-01-04T01:48:27.483Z,24.64
2023-01-04T01:49:27.384Z,24.66
2023-01-04T01:50:27.340Z,24.53
2023-01-04T01:51:27.301Z,24.57
2023-01-04T01:52:27.252Z,24.66
2023-01-04T01:53:27.207Z,24.59
2023-01-04T01:54:27.245Z,24.61
2023-01-04T01:55:27.101Z,24.59
2023-01-04T01:56:27.050Z,24.47
2023-01-04T01:57:27.006Z,24.58
2023-01-04T01:58:26.959Z,24.60
2023-01-04T01:59:26.914Z,24.60
2023-01-04T02:00:26.867Z,24.64
2023-01-04T02:01:26.892Z,24.60
2023-01-04T02:02:27.018Z,24.61
2023-01-04T02:03:26.773Z,24.59
2023-01-04T02:04:26.688Z,24.53
2023-01-04T02:05:26.655Z,24.53
2023-01-04T02:06:26.595Z,24.55
2023-01-04T02:07:26.558Z,24.56
2023-01-04T02:08:26.489Z,24.55
2023-01-04T02:09:27.042Z,24.50
2023-01-04T02:10:26.409Z,24.52
2023-01-04T02:11:26.337Z,24.49
2023-01-04T02:12:26.300Z,24.52
2023-01-04T02:13:26.253Z,24.55
2023-01-04T02:14:26.238Z,24.53
2023-01-04T02:15:26.213Z,24.56
2023-01-04T02:16:26.162Z,24.53
2023-01-04T02:17:26.093Z,24.55
2023-01-04T02:18:26.060Z,24.52
2023-01-04T02:19:26.059Z,24.38
2023-01-04T02:20:26.025Z,24.50
2023-01-04T02:21:25.961Z,24.50
2023-01-04T02:22:25.934Z,24.50
2023-01-04T02:23:25.893Z,24.50
2023-01-04T02:24:25.885Z,24.47
2023-01-04T02:25:25.828Z,24.52
2023-01-04T02:26:25.791Z,24.45
2023-01-04T02:27:25.754Z,24.50
2023-01-04T02:28:25.730Z,24.47
2023-01-04T02:29:25.701Z,24.46
2023-01-04T02:30:25.669Z,24.47
2023-01-04T02:31:25.686Z,24.53
2023-01-04T02:32:25.610Z,24.42
2023-01-04T02:33:25.560Z,24.43
2023-01-04T02:34:25.529Z,24.33
2023-01-04T02:35:25.499Z,24.39
2023-01-04T02:36:25.454Z,24.40
2023-01-04T02:37:25.432Z,24.46
2023-01-04T02:38:25.402Z,24.50
2023-01-04T02:39:25.345Z,24.42
2023-01-04T02:40:25.336Z,24.40
2023-01-04T02:41:25.294Z,24.28
2023-01-04T02:42:25.260Z,24.46
2023-01-04T02:43:25.213Z,24.40
2023-01-04T02:44:25.180Z,24.35
2023-01-04T02:45:25.129Z,24.43
2023-01-04T02:46:25.129Z,24.42
2023-01-04T02:47:25.067Z,24.38
2023-01-04T02:48:24.999Z,24.39
2023-01-04T02:49:24.952Z,24.40
2023-01-04T02:50:24.910Z,24.40
2023-01-04T02:51:24.875Z,24.40
2023-01-04T02:52:24.830Z,24.40
2023-01-04T02:53:24.919Z,24.35
2023-01-04T02:54:24.743Z,24.39
2023-01-04T02:55:24.702Z,24.39
2023-01-04T02:56:24.662Z,24.39
2023-01-04T02:57:24.612Z,24.36
2023-01-04T02:58:24.568Z,24.39
2023-01-04T02:59:24.525Z,24.42
2023-01-04T03:00:24.477Z,24.33
2023-01-04T03:01:24.577Z,24.36
2023-01-04T03:02:24.589Z,24.30
2023-01-04T03:03:24.476Z,24.39
2023-01-04T03:04:24.292Z,24.25
2023-01-04T03:05:24.259Z,24.32
2023-01-04T03:06:24.194Z,24.28
2023-01-04T03:07:24.147Z,24.33
2023-01-04T03:08:24.090Z,24.29
2023-01-04T03:09:24.041Z,24.33
2023-01-04T03:10:23.998Z,24.35
2023-01-04T03:11:23.954Z,24.31
2023-01-04T03:12:23.922Z,24.31
2023-01-04T03:13:23.864Z,24.29
2023-01-04T03:14:32.689Z,24.33
2023-01-04T03:15:24.750Z,24.32
2023-01-04T03:16:23.833Z,24.26
2023-01-04T03:17:23.660Z,24.32
2023-01-04T03:18:23.638Z,24.28
2023-01-04T03:19:23.584Z,24.32
2023-01-04T03:20:23.522Z,24.31
2023-01-04T03:21:23.489Z,24.26
2023-01-04T03:22:23.442Z,24.25
2023-01-04T03:23:23.538Z,24.26
2023-01-04T03:24:23.403Z,24.33
2023-01-04T03:25:23.380Z,24.25
2023-01-04T03:26:23.419Z,24.26
2023-01-04T03:27:23.303Z,24.26
2023-01-04T03:28:24.064Z,24.31
2023-01-04T03:29:23.360Z,24.31
2023-01-04T03:30:23.199Z,24.33
2023-01-04T03:31:23.354Z,24.26
2023-01-04T03:32:22.987Z,24.24
2023-01-04T03:33:22.929Z,24.28
2023-01-04T03:34:22.902Z,24.19
2023-01-04T03:35:22.848Z,24.22
2023-01-04T03:36:22.783Z,24.15
2023-01-04T03:37:22.721Z,24.25
2023-01-04T03:38:22.706Z,24.26
2023-01-04T03:39:22.639Z,24.28
2023-01-04T03:40:22.579Z,24.28
2023-01-04T03:41:22.519Z,24.22
2023-01-04T03:42:22.479Z,24.21
2023-01-04T03:43:22.429Z,24.17
2023-01-04T03:44:22.376Z,24.25
2023-01-04T03:45:22.328Z,24.23
2023-01-04T03:46:22.315Z,24.24
2023-01-04T03:47:22.246Z,24.18
2023-01-04T03:48:22.187Z,24.18
2023-01-04T03:49:22.152Z,24.25
2023-01-04T03:50:22.092Z,24.25
2023-01-04T03:51:22.086Z,24.22
2023-01-04T03:52:22.018Z,24.25
2023-01-04T03:53:21.961Z,24.25
2023-01-04T03:54:21.925Z,24.19
2023-01-04T03:55:21.893Z,24.18
2023-01-04T03:56:21.870Z,24.14
2023-01-04T03:57:21.815Z,24.11
2023-01-04T03:58:21.733Z,24.18
2023-01-04T03:59:21.686Z,24.30
2023-01-04T04:00:21.660Z,24.15
2023-01-04T04:01:21.789Z,24.14
2023-01-04T04:02:21.591Z,24.21
2023-01-04T04:03:21.509Z,24.18
2023-01-04T04:04:21.540Z,24.22
2023-01-04T04:05:21.399Z,24.23
2023-01-04T04:06:21.353Z,24.25
2023-01-04T04:07:21.340Z,24.17
2023-01-04T04:08:21.253Z,24.11
2023-01-04T04:09:21.192Z,24.11
2023-01-04T04:10:21.165Z,24.18
2023-01-04T04:11:21.109Z,24.19
2023-01-04T04:12:21.060Z,24.19
2023-01-04T04:13:21.019Z,24.14
2023-01-04T04:14:20.964Z,24.18
2023-01-04T04:15:20.912Z,24.18
2023-01-04T04:16:20.922Z,24.22
2023-01-04T04:17:20.811Z,24.18
2023-01-04T04:18:20.757Z,24.25
2023-01-04T04:19:20.718Z,24.15
2023-01-04T04:20:20.649Z,24.14
2023-01-04T04:21:20.594Z,24.07
2023-01-04T04:22:20.544Z,24.15
2023-01-04T04:23:20.499Z,24.21
2023-01-04T04:24:20.458Z,24.22
2023-01-04T04:25:20.413Z,24.19
2023-01-04T04:26:20.356Z,24.10
2023-01-04T04:27:20.306Z,24.18
2023-01-04T04:28:20.264Z,24.17
2023-01-04T04:29:20.206Z,24.11
2023-01-04T04:30:20.159Z,24.11
2023-01-04T04:31:20.213Z,24.15
2023-01-04T04:32:20.056Z,24.14
2023-01-04T04:33:20.011Z,24.10
2023-01-04T04:34:19.936Z,24.15
2023-01-04T04:35:19.886Z,24.17
2023-01-04T04:36:19.834Z,24.11
2023-01-04T04:37:19.796Z,24.10
2023-01-04T04:38:19.767Z,24.10
2023-01-04T04:39:19.701Z,24.11
2023-01-04T04:40:19.654Z,24.04
2023-01-04T04:41:19.611Z,24.07
2023-01-04T04:42:19.564Z,24.09
2023-01-04T04:43:19.544Z,24.04
2023-01-04T04:44:19.511Z,24.10
2023-01-04T04:45:19.410Z,24.07
2023-01-04T04:46:19.389Z,24.06
2023-01-04T04:47:19.325Z,23.97
2023-01-04T04:48:19.277Z,24.07
2023-01-04T04:49:19.230Z,24.07
2023-01-04T04:50:19.193Z,24.00
2023-01-04T04:51:19.173Z,24.08
2023-01-04T04:52:19.088Z,24.03
2023-01-04T04:53:19.042Z,24.07
2023-01-04T04:54:18.992Z,24.07
2023-01-04T04:55:18.951Z,24.06
2023-01-04T04:56:18.877Z,24.00
2023-01-04T04:57:18.834Z,23.99
2023-01-04T04:58:18.786Z,24.08
2023-01-04T04:59:18.720Z,24.11
2023-01-04T05:00:18.675Z,24.01
2023-01-04T05:01:18.761Z,24.01
2023-01-04T05:02:18.886Z,23.97
2023-01-04T05:03:18.703Z,23.96
2023-01-04T05:04:18.498Z,24.01
2023-01-04T05:05:18.445Z,24.00
2023-01-04T05:06:18.414Z,24.07
2023-01-04T05:07:18.347Z,24.00
2023-01-04T05:08:18.317Z,23.99
2023-01-04T05:09:18.256Z,24.00
2023-01-04T05:10:18.212Z,24.00
2023-01-04T05:11:18.152Z,24.00
2023-01-04T05:12:18.120Z,23.98
2023-01-04T05:13:18.077Z,23.93
2023-01-04T05:14:18.037Z,23.97
2023-01-04T05:15:17.966Z,23.97
2023-01-04T05:16:18.618Z,23.96
2023-01-04T05:17:17.888Z,23.90
2023-01-04T05:18:17.815Z,23.94
2023-01-04T05:19:17.774Z,23.92
2023-01-04T05:20:17.714Z,23.82
2023-01-04T05:21:20.319Z,23.96
2023-01-04T05:22:17.617Z,23.92
2023-01-04T05:23:17.588Z,23.82
2023-01-04T05:24:17.526Z,23.82
2023-01-04T05:25:17.467Z,23.86
2023-01-04T05:26:17.424Z,23.89
2023-01-04T05:27:17.374Z,23.90
2023-01-04T05:28:17.324Z,23.81
2023-01-04T05:29:17.277Z,23.90
2023-01-04T05:30:17.231Z,23.82
2023-01-04T05:31:17.195Z,23.89
2023-01-04T05:32:17.166Z,23.92
2023-01-04T05:33:17.088Z,23.89
2023-01-04T05:34:21.984Z,23.90
2023-01-04T05:35:17.993Z,23.83
2023-01-04T05:36:16.963Z,23.83
2023-01-04T05:37:16.923Z,23.79
2023-01-04T05:38:16.898Z,23.82
2023-01-04T05:39:16.838Z,23.86
2023-01-04T05:40:16.814Z,23.76
2023-01-04T05:41:16.744Z,23.87
2023-01-04T05:42:16.721Z,23.87
2023-01-04T05:43:16.660Z,23.87
2023-01-04T05:44:16.620Z,23.86
2023-01-04T05:45:16.556Z,23.82
2023-01-04T05:46:16.570Z,23.70
2023-01-04T05:47:16.469Z,23.85
2023-01-04T05:48:16.431Z,23.79
2023-01-04T05:49:16.373Z,23.79
2023-01-04T05:50:16.312Z,23.79
2023-01-04T05:51:16.296Z,23.78
2023-01-04T05:52:16.228Z,23.81
2023-01-04T05:53:16.228Z,23.79
2023-01-04T05:54:21.112Z,23.83
2023-01-04T05:55:17.109Z,23.81
2023-01-04T05:56:16.052Z,23.79
2023-01-04T05:57:16.006Z,23.81
2023-01-04T05:58:16.008Z,23.69
2023-01-04T05:59:15.927Z,23.83
2023-01-04T06:00:15.891Z,23.84
2023-01-04T06:01:15.894Z,23.79
2023-01-04T06:02:15.951Z,23.76
2023-01-04T06:03:15.898Z,23.71
2023-01-04T06:04:15.786Z,23.81
2023-01-04T06:05:15.683Z,23.79
2023-01-04T06:06:15.620Z,23.78
2023-01-04T06:07:15.582Z,23.79
2023-01-04T06:08:15.530Z,23.82
2023-01-04T06:09:15.481Z,23.75
2023-01-04T06:10:15.446Z,23.76
2023-01-04T06:11:15.409Z,23.71
2023-01-04T06:12:15.348Z,23.79
2023-01-04T06:13:15.312Z,23.74
2023-01-04T06:14:15.265Z,23.67
2023-01-04T06:15:15.213Z,23.79
2023-01-04T06:18:04.630Z,23.67
2023-01-04T06:19:03.076Z,23.72
2023-01-04T06:20:03.031Z,23.74
2023-01-04T06:21:02.992Z,23.65
2023-01-04T06:22:02.950Z,23.64
2023-01-04T06:23:02.905Z,23.70
2023-01-04T06:24:02.852Z,23.71
2023-01-04T06:25:02.825Z,23.56
2023-01-04T06:26:02.776Z,23.71
2023-01-04T06:27:02.734Z,23.50
2023-01-04T06:28:02.685Z,23.60
2023-01-04T06:29:02.684Z,23.64
2023-01-04T06:30:02.609Z,23.68
2023-01-04T06:31:02.633Z,23.72
2023-01-04T06:32:02.536Z,23.53
2023-01-04T06:33:02.492Z,23.54
2023-01-04T06:34:02.460Z,23.64
2023-01-04T06:35:02.404Z,23.59
2023-01-04T06:36:02.373Z,23.64
2023-01-04T06:37:02.339Z,23.51
2023-01-04T06:38:02.288Z,23.62
2023-01-04T06:39:02.238Z,23.61
2023-01-04T06:40:02.222Z,23.65
2023-01-04T06:41:02.192Z,23.57
2023-01-04T06:42:06.682Z,23.61
2023-01-04T06:43:03.092Z,23.67
2023-01-04T06:44:02.027Z,23.65
2023-01-04T06:45:01.997Z,23.58
2023-01-04T06:46:01.987Z,23.61
2023-01-04T06:47:01.922Z,23.61
2023-01-04T06:48:07.241Z,23.63
2023-01-04T06:49:02.832Z,23.65
2023-01-04T06:50:01.783Z,23.64
2023-01-04T06:51:01.760Z,23.63
2023-01-04T06:52:01.678Z,23.54
2023-01-04T06:53:01.634Z,23.58
2023-01-04T06:54:01.609Z,23.68
2023-01-04T06:55:01.552Z,23.58
2023-01-04T06:56:01.505Z,23.61
2023-01-04T06:57:01.455Z,23.55
2023-01-04T06:58:01.413Z,23.58
2023-01-04T06:59:01.397Z,23.57
2023-01-04T07:00:01.320Z,23.51
2023-01-04T07:01:01.336Z,23.51
2023-01-04T07:02:01.325Z,23.50
2023-01-04T07:03:12.679Z,23.51
2023-01-04T07:04:02.220Z,23.58
2023-01-04T07:05:01.222Z,23.53
2023-01-04T07:06:01.079Z,23.53
2023-01-04T07:07:01.056Z,23.55
2023-01-04T07:08:07.452Z,23.50
2023-01-04T07:09:00.984Z,23.50
2023-01-04T07:10:07.081Z,23.53
2023-01-04T07:11:01.869Z,23.46
2023-01-04T07:12:00.811Z,23.58
2023-01-04T07:13:00.787Z,23.51
2023-01-04T07:14:00.730Z,23.58
2023-01-04T07:15:00.684Z,23.54
2023-01-04T07:16:00.684Z,23.53
2023-01-04T07:17:00.607Z,23.53
2023-01-04T07:18:00.586Z,23.50
2023-01-04T07:19:00.532Z,23.47
2023-01-04T07:20:00.525Z,23.55
2023-01-04T07:21:00.491Z,23.57
2023-01-04T07:22:00.422Z,23.58
2023-01-04T07:23:00.387Z,23.48
2023-01-04T07:24:00.354Z,23.37
2023-01-04T07:25:00.297Z,23.39
2023-01-04T07:26:00.282Z,23.45
2023-01-04T07:27:00.247Z,23.47
2023-01-04T07:28:00.199Z,23.44
2023-01-04T07:29:00.154Z,23.50
2023-01-04T07:30:00.156Z,23.43
2023-01-04T07:31:00.155Z,23.50
2023-01-04T07:32:00.103Z,23.41
2023-01-04T07:33:00.024Z,23.50
2023-01-04T07:33:59.978Z,23.48
2023-01-04T07:34:59.930Z,23.45
2023-01-04T07:35:59.901Z,23.43
2023-01-04T07:36:59.847Z,23.46
2023-01-04T07:37:59.802Z,23.40
2023-01-04T07:38:59.764Z,23.46
2023-01-04T07:39:59.726Z,23.37
2023-01-04T07:40:59.686Z,23.46
2023-01-04T07:41:59.659Z,23.51
2023-01-04T07:42:59.662Z,23.48
2023-01-04T07:43:59.567Z,23.48
2023-01-04T07:44:59.519Z,23.47
2023-01-04T07:45:59.562Z,23.46
2023-01-04T07:46:59.437Z,23.50
2023-01-04T07:47:59.416Z,23.49
2023-01-04T07:48:59.376Z,23.48
2023-01-04T07:49:59.359Z,23.46
2023-01-04T07:50:59.275Z,23.46
2023-01-04T07:51:59.268Z,23.46
2023-01-04T07:52:59.204Z,23.48
2023-01-04T07:53:59.187Z,23.47
2023-01-04T07:54:59.156Z,23.49
2023-01-04T07:55:59.094Z,23.54
2023-01-04T07:56:59.072Z,23.32
2023-01-04T07:57:59.011Z,23.45
2023-01-04T07:58:58.996Z,23.45
2023-01-04T07:59:58.943Z,23.32
2023-01-04T08:00:58.895Z,23.40
2023-01-04T08:01:59.038Z,23.47
2023-01-04T08:02:58.962Z,23.54
2023-01-04T08:03:58.858Z,23.45
2023-01-04T08:04:58.835Z,23.39
2023-01-04T08:05:58.718Z,23.45
2023-01-04T08:06:58.687Z,23.47
2023-01-04T08:07:58.655Z,23.47
2023-01-04T08:08:58.650Z,23.46
2023-01-04T08:09:58.584Z,23.39
2023-01-04T08:10:58.539Z,23.42
2023-01-04T08:11:58.505Z,23.42
2023-01-04T08:12:58.475Z,23.37
2023-01-04T08:13:58.479Z,23.36
2023-01-04T08:14:58.389Z,23.36
2023-01-04T08:15:58.427Z,23.39
2023-01-04T08:16:58.356Z,23.37
2023-01-04T08:17:58.312Z,23.39
2023-01-04T08:18:58.265Z,23.32
2023-01-04T08:19:58.226Z,23.33
2023-01-04T08:20:58.716Z,23.31
2023-01-04T08:21:58.254Z,23.37
2023-01-04T08:22:58.138Z,23.41
2023-01-04T08:23:58.064Z,23.40
2023-01-04T08:24:58.027Z,23.36
2023-01-04T08:25:57.997Z,23.42
2023-01-04T08:26:57.944Z,23.35
2023-01-04T08:27:57.914Z,23.36
2023-01-04T08:28:57.863Z,23.34
2023-01-04T08:29:57.851Z,23.35
2023-01-04T08:30:57.844Z,23.42
2023-01-04T08:31:57.751Z,23.38
2023-01-04T08:32:57.736Z,23.36
2023-01-04T08:33:57.660Z,23.32
2023-01-04T08:34:57.605Z,23.29
2023-01-04T08:35:57.554Z,23.35
2023-01-04T08:36:57.503Z,23.34
2023-01-04T08:38:20.094Z,23.36
2023-01-04T08:39:00.556Z,23.38
2023-01-04T08:39:57.357Z,23.39
2023-01-04T08:40:59.698Z,23.34
2023-01-04T08:42:04.244Z,23.34
2023-01-04T08:42:58.229Z,23.31
2023-01-04T08:43:57.200Z,23.27
2023-01-04T08:44:59.572Z,23.32
2023-01-04T08:45:57.138Z,23.31
2023-01-04T08:46:57.155Z,23.39
2023-01-04T08:47:56.993Z,23.27
2023-01-04T08:48:56.929Z,23.37
2023-01-04T08:49:56.888Z,23.32
2023-01-04T08:50:56.830Z,23.38
2023-01-04T08:51:56.774Z,23.32
2023-01-04T08:52:56.734Z,23.38
2023-01-04T08:53:56.678Z,23.35
2023-01-04T08:54:56.629Z,23.31
2023-01-04T08:55:56.577Z,23.30
2023-01-04T08:56:56.569Z,23.27
2023-01-04T08:57:56.477Z,23.31
2023-01-04T08:58:56.438Z,23.35
2023-01-04T08:59:56.383Z,23.30
2023-01-04T09:00:56.324Z,23.09
2023-01-04T09:02:02.697Z,23.23
2023-01-04T09:02:57.512Z,23.27
2023-01-04T09:03:56.215Z,23.24
2023-01-04T09:04:56.186Z,23.30
2023-01-04T09:05:56.087Z,23.30
2023-01-04T09:06:56.053Z,23.30
2023-01-04T09:07:56.022Z,23.19
2023-01-04T09:08:55.960Z,23.22
2023-01-04T09:09:55.931Z,23.20
2023-01-04T09:10:55.881Z,23.19
2023-01-04T09:11:55.850Z,23.19
2023-01-04T09:12:55.803Z,23.15
2023-01-04T09:13:59.552Z,23.16
2023-01-04T09:14:56.717Z,23.07
2023-01-04T09:15:55.673Z,23.09
2023-01-04T09:16:55.610Z,23.05
2023-01-04T09:18:30.414Z,22.98
2023-01-04T09:18:56.526Z,23.05
2023-01-04T09:19:55.482Z,23.07
2023-01-04T09:20:55.455Z,23.04
2023-01-04T09:21:55.454Z,23.04
2023-01-04T09:22:55.348Z,22.88
2023-01-04T09:23:55.299Z,22.92
2023-01-04T09:24:55.272Z,22.76
2023-01-04T09:25:55.215Z,22.82
2023-01-04T09:26:55.185Z,22.81
2023-01-04T09:27:55.117Z,22.82
2023-01-04T09:28:55.099Z,22.79
2023-01-04T09:29:55.015Z,22.81
2023-01-04T09:30:55.018Z,22.78
2023-01-04T09:31:54.976Z,22.78
2023-01-04T09:32:54.886Z,22.77
2023-01-04T09:34:55.776Z,22.80
2023-01-04T09:35:54.750Z,22.68
2023-01-04T09:36:54.686Z,22.72
2023-01-04T09:37:54.620Z,22.73
2023-01-04T09:38:54.593Z,22.73
2023-01-04T09:39:54.524Z,22.70
2023-01-04T09:40:54.479Z,22.76
2023-01-04T09:41:54.435Z,22.72
2023-01-04T09:43:21.530Z,22.78
2023-01-04T09:43:55.318Z,22.86
2023-01-04T09:45:22.457Z,22.83
2023-01-04T09:45:55.199Z,22.87
2023-01-04T09:46:54.231Z,22.92
2023-01-04T09:47:54.087Z,22.89
2023-01-04T09:48:54.027Z,22.94
2023-01-04T09:49:53.986Z,22.92
2023-01-04T09:50:53.907Z,22.95
2023-01-04T09:51:53.855Z,22.92
2023-01-04T09:52:53.863Z,22.90
2023-01-04T09:53:53.752Z,22.90
2023-01-04T09:54:56.153Z,22.92
2023-01-04T09:55:54.631Z,22.90
2023-01-04T09:56:53.704Z,22.93
2023-01-04T09:57:53.681Z,22.92
2023-01-04T09:58:53.485Z,22.90
2023-01-04T09:59:53.407Z,22.89
2023-01-04T10:00:53.353Z,22.78
2023-01-04T10:01:53.484Z,22.81
2023-01-04T10:02:53.310Z,22.76
2023-01-04T10:03:53.160Z,22.73
2023-01-04T10:04:53.067Z,22.76
2023-01-04T10:05:53.005Z,22.76
2023-01-04T10:06:52.924Z,22.86
2023-01-04T10:07:52.871Z,22.80
2023-01-04T10:08:52.847Z,22.80
2023-01-04T10:09:52.750Z,22.86
2023-01-04T10:10:52.684Z,22.92
2023-01-04T10:11:52.624Z,22.82
2023-01-04T10:12:56.490Z,22.88
2023-01-04T10:13:53.550Z,22.99
2023-01-04T10:14:52.431Z,22.95
2023-01-04T10:15:52.427Z,22.98
2023-01-04T10:20:08.030Z,22.95
2023-01-04T11:16:09.404Z,23.10
2023-01-04T11:21:47.970Z,22.99
2023-01-04T11:22:47.965Z,23.02
2023-01-04T11:23:47.826Z,22.88
2023-01-04T11:25:24.235Z,22.86
2023-01-04T11:25:55.300Z,22.78
2023-01-04T11:26:48.613Z,22.63
2023-01-04T11:27:47.531Z,22.58
2023-01-04T11:28:47.459Z,22.56
2023-01-04T11:29:47.394Z,22.46
2023-01-04T11:30:47.331Z,22.43
2023-01-04T11:31:47.296Z,22.38
2023-01-04T11:32:47.161Z,22.30
2023-01-04T11:33:47.094Z,22.28
2023-01-04T11:34:47.024Z,22.31
2023-01-04T11:35:46.966Z,22.26
2023-01-04T11:36:46.870Z,22.25
2023-01-04T11:37:46.800Z,22.19
2023-01-04T11:38:46.713Z,22.18
2023-01-04T11:39:46.626Z,22.07
2023-01-04T11:40:46.548Z,22.02
2023-01-04T11:41:46.460Z,22.06
2023-01-04T11:42:46.382Z,22.01
2023-01-04T11:43:46.293Z,21.96
2023-01-04T11:44:46.213Z,21.97
2023-01-04T11:45:46.211Z,21.97
2023-01-04T11:46:46.045Z,21.97
2023-01-04T11:47:45.961Z,22.06
2023-01-04T11:48:45.899Z,21.96
2023-01-04T11:49:45.801Z,21.99
2023-01-04T11:50:45.722Z,21.99
2023-01-04T11:51:45.626Z,22.00
2023-01-04T11:52:45.554Z,22.06
2023-01-04T11:53:45.458Z,22.12
2023-01-04T11:54:45.446Z,22.13
2023-01-04T11:55:45.293Z,22.22
2023-01-04T11:56:45.217Z,22.25
2023-01-04T11:57:45.134Z,22.19
2023-01-04T11:58:45.060Z,22.22
2023-01-04T11:59:45.008Z,22.23
2023-01-04T12:00:45.022Z,22.28
2023-01-04T12:01:44.893Z,22.38
2023-01-04T12:03:01.238Z,22.38
2023-01-04T12:03:45.643Z,22.40
2023-01-04T12:04:44.561Z,22.42
2023-01-04T12:05:44.473Z,22.48
2023-01-04T12:06:44.398Z,22.50
2023-01-04T12:07:44.320Z,22.53
2023-01-04T12:08:44.231Z,22.53
2023-01-04T12:09:44.156Z,22.63
2023-01-04T12:10:44.080Z,22.62
2023-01-04T12:11:43.993Z,22.65
2023-01-04T12:12:43.919Z,22.72
2023-01-04T12:13:43.851Z,22.71
2023-01-04T12:14:43.783Z,22.73
2023-01-04T12:15:43.749Z,22.74
2023-01-04T12:16:43.721Z,22.72
2023-01-04T12:17:43.626Z,22.74
2023-01-04T12:18:43.491Z,22.81
2023-01-04T12:19:43.405Z,22.81
2023-01-04T12:20:43.349Z,22.81
2023-01-04T12:21:43.273Z,22.82
2023-01-04T12:22:43.186Z,22.90
2023-01-04T12:23:43.114Z,22.88
2023-01-04T12:24:43.059Z,22.91
2023-01-04T12:25:42.979Z,22.96
2023-01-04T12:26:42.927Z,22.97
2023-01-04T12:27:42.838Z,22.95
2023-01-04T12:28:42.793Z,22.97
2023-01-04T12:29:42.706Z,22.94
2023-01-04T12:30:42.644Z,22.99
2023-01-04T12:31:42.579Z,23.02
2023-01-04T12:32:42.513Z,23.01
2023-01-04T12:33:42.453Z,23.01
2023-01-04T12:34:42.391Z,23.09
2023-01-04T12:35:42.320Z,22.99
2023-01-04T12:36:42.235Z,23.07
2023-01-04T12:37:42.162Z,23.08
2023-01-04T12:38:42.106Z,23.05
2023-01-04T13:06:40.249Z,23.37
2023-01-04T13:10:39.989Z,23.37
2023-01-04T13:21:39.263Z,23.44
2023-01-04T13:22:39.189Z,23.42
2023-01-04T13:23:39.116Z,23.44
2023-01-04T13:24:39.067Z,23.43
2023-01-04T13:25:38.991Z,23.43
2023-01-04T13:26:38.946Z,23.46
2023-01-04T13:27:38.888Z,23.46
2023-01-04T13:28:38.814Z,23.52
2023-01-04T13:29:38.790Z,23.48
2023-01-04T13:30:38.701Z,23.44
2023-01-04T13:31:38.682Z,23.47
2023-01-04T13:32:59.534Z,23.52
2023-01-04T13:34:38.551Z,23.52
2023-01-04T13:35:38.385Z,23.46
2023-01-04T13:36:39.004Z,23.49
2023-01-04T13:37:38.259Z,23.46
2023-01-04T13:38:38.216Z,23.54
2023-01-04T13:39:38.108Z,23.52
2023-01-04T13:40:38.041Z,23.53
2023-01-04T13:41:37.963Z,23.50
2023-01-04T13:42:37.901Z,23.50
2023-01-04T13:43:37.853Z,23.57
2023-01-04T13:45:09.050Z,23.52
2023-01-04T13:45:38.707Z,23.51
2023-01-04T13:46:37.689Z,23.54
2023-01-04T13:47:37.594Z,23.46
2023-01-04T13:48:37.529Z,23.55
2023-01-04T13:49:37.471Z,23.57
2023-01-04T13:50:37.428Z,23.54
2023-01-04T13:51:38.315Z,23.54
2023-01-04T13:53:03.981Z,23.55
2023-01-04T13:53:38.199Z,23.58
2023-01-04T13:54:37.128Z,23.57
2023-01-04T13:55:37.109Z,23.58
2023-01-04T13:56:36.993Z,23.58
2023-01-04T13:57:36.932Z,23.58
2023-01-04T13:58:37.508Z,23.58
2023-01-04T13:59:36.802Z,23.58
2023-01-04T14:00:42.491Z,23.57
2023-01-04T14:01:37.820Z,23.62
2023-01-04T14:02:36.849Z,23.55
2023-01-04T14:03:36.646Z,23.62
2023-01-04T14:04:36.494Z,23.65
2023-01-04T14:05:36.439Z,23.62
2023-01-04T14:06:36.371Z,23.62
2023-01-04T14:07:36.317Z,23.66
2023-01-04T14:08:36.272Z,23.58
2023-01-04T14:09:36.187Z,23.63
2023-01-04T14:10:36.129Z,23.63
2023-01-04T14:11:36.160Z,23.62
2023-01-04T14:12:36.028Z,23.65
2023-01-04T14:13:35.959Z,23.63
2023-01-04T14:14:35.911Z,23.60
2023-01-04T14:15:35.844Z,23.67
2023-01-04T14:16:35.796Z,23.64
2023-01-04T14:17:35.715Z,23.62
2023-01-04T14:18:35.668Z,23.67
2023-01-04T14:19:35.637Z,23.63
2023-01-04T14:20:35.530Z,23.59
2023-01-04T14:21:35.492Z,23.59
2023-01-04T14:22:35.448Z,23.64
2023-01-04T14:23:35.528Z,23.66
2023-01-04T14:25:36.459Z,23.65
2023-01-04T14:26:35.489Z,23.64
2023-01-04T14:27:35.393Z,23.61
2023-01-04T14:28:36.225Z,23.65
2023-01-04T14:29:35.321Z,23.65
2023-01-04T14:30:35.144Z,23.65
2023-01-04T14:31:35.216Z,23.64
2023-01-04T14:32:35.136Z,23.67
2023-01-04T14:33:35.089Z,23.61
2023-01-04T14:34:35.014Z,23.64
2023-01-04T14:35:38.292Z,23.60
2023-01-04T14:36:35.900Z,23.63
2023-01-04T14:37:34.832Z,23.65
2023-01-04T14:38:34.766Z,23.65
2023-01-04T14:39:34.712Z,23.61